createdAt,value
2023-05-25T00:02:04.868Z,94.80
2023-05-25T00:04:34.504Z,94.90
2023-05-25T00:07:02.773Z,94.90
2023-05-25T00:09:32.114Z,94.90
2023-05-25T00:12:00.937Z,94.80
2023-05-25T00:14:28.931Z,95.00
2023-05-25T00:16:56.986Z,95.20
2023-05-25T00:19:24.982Z,95.20
2023-05-25T00:21:54.650Z,95.30
2023-05-25T00:24:22.614Z,95.30
2023-05-25T00:26:51.922Z,95.50
2023-05-25T00:29:20.126Z,95.40
2023-05-25T00:31:48.223Z,95.50
2023-05-25T00:34:16.419Z,95.40
2023-05-25T00:36:48.249Z,95.40
2023-05-25T00:39:16.753Z,95.40
2023-05-25T00:41:46.468Z,95.40
2023-05-25T00:44:21.661Z,95.60
2023-05-25T00:46:52.453Z,95.60
2023-05-25T00:49:23.087Z,95.60
2023-05-25T00:51:53.335Z,95.80
2023-05-25T00:54:21.916Z,95.60
2023-05-25T00:56:53.167Z,95.80
2023-05-25T00:59:30.872Z,95.30
2023-05-25T01:02:03.381Z,95.40
2023-05-25T01:04:33.825Z,95.40
2023-05-25T01:07:03.572Z,95.30
2023-05-25T01:09:34.501Z,95.40
2023-05-25T01:12:04.142Z,95.60
2023-05-25T01:14:36.312Z,95.70
2023-05-25T01:17:04.540Z,95.60
2023-05-25T01:19:33.812Z,95.80
2023-05-25T01:22:08.991Z,96.00
2023-05-25T01:24:41.836Z,95.90
2023-05-25T01:27:16.990Z,95.90
2023-05-25T01:29:47.753Z,95.90
2023-05-25T01:32:18.434Z,95.90
2023-05-25T01:34:47.507Z,95.90
2023-05-25T01:37:17.487Z,95.80
2023-05-25T01:39:45.516Z,95.80
2023-05-25T01:42:13.606Z,95.90
2023-05-25T01:44:42.037Z,96.20
2023-05-25T01:47:17.788Z,96.30
2023-05-25T01:50:01.243Z,96.30
2023-05-25T01:52:36.265Z,96.10
2023-05-25T01:55:09.048Z,96.00
2023-05-25T01:57:44.051Z,96.00
2023-05-25T02:00:14.139Z,96.10
2023-05-25T02:02:45.075Z,96.00
2023-05-25T02:05:13.621Z,95.90
2023-05-25T02:07:43.031Z,95.70
2023-05-25T02:10:11.683Z,95.40
2023-05-25T02:12:39.814Z,95.40
2023-05-25T02:15:08.726Z,95.10
2023-05-25T02:17:37.188Z,94.60
2023-05-25T02:20:08.032Z,94.50
2023-05-25T02:22:37.816Z,94.50
2023-05-25T02:25:10.559Z,94.90
2023-05-25T02:27:38.775Z,95.00
2023-05-25T02:30:08.863Z,94.60
2023-05-25T02:32:37.634Z,94.50
2023-05-25T02:35:06.527Z,94.40
2023-05-25T02:37:34.846Z,94.50
2023-05-25T02:40:03.889Z,94.40
2023-05-25T02:42:33.887Z,94.50
2023-05-25T02:45:01.874Z,94.20
2023-05-25T02:47:30.755Z,94.30
2023-05-25T02:49:58.837Z,94.50
2023-05-25T02:52:27.727Z,94.70
2023-05-25T02:54:56.009Z,94.70
2023-05-25T02:57:32.708Z,94.70
2023-05-25T03:00:01.629Z,94.90
2023-05-25T03:02:30.901Z,94.40
2023-05-25T03:05:00.365Z,94.40
2023-05-25T03:07:31.122Z,94.30
2023-05-25T03:09:59.516Z,94.10
2023-05-25T03:12:27.694Z,94.10
2023-05-25T03:14:57.350Z,94.10
2023-05-25T03:17:25.420Z,94.10
2023-05-25T03:19:53.511Z,94.10
2023-05-25T03:22:21.588Z,94.60
2023-05-25T03:24:50.231Z,94.80
2023-05-25T03:27:18.812Z,94.70
2023-05-25T03:29:46.865Z,94.70
2023-05-25T03:32:16.800Z,94.80
2023-05-25T03:34:45.655Z,94.80
2023-05-25T03:37:16.429Z,94.70
2023-05-25T03:39:44.791Z,94.70
2023-05-25T03:42:12.778Z,94.80
2023-05-25T03:44:41.474Z,94.80
2023-05-25T03:47:11.413Z,94.80
2023-05-25T03:49:41.314Z,94.90
2023-05-25T03:52:09.308Z,95.00
2023-05-25T03:54:37.337Z,95.00
2023-05-25T03:57:06.251Z,95.00
2023-05-25T03:59:34.258Z,95.10
2023-05-25T04:02:02.206Z,95.10
2023-05-25T04:04:30.416Z,95.10
2023-05-25T04:07:01.574Z,94.90
2023-05-25T04:09:31.240Z,94.90
2023-05-25T04:11:59.308Z,94.90
2023-05-25T04:14:27.315Z,94.70
2023-05-25T04:16:55.580Z,94.90
2023-05-25T04:19:23.740Z,94.90
2023-05-25T04:21:51.794Z,94.90
2023-05-25T04:24:22.376Z,94.80
2023-05-25T04:26:50.771Z,94.90
2023-05-25T04:29:19.169Z,95.00
2023-05-25T04:32:09.666Z,95.00
2023-05-25T04:35:07.472Z,95.10
2023-05-25T04:37:42.154Z,95.10
2023-05-25T04:40:14.224Z,95.20
2023-05-25T04:42:44.966Z,95.30
2023-05-25T04:45:17.419Z,95.30
2023-05-25T04:47:45.966Z,95.20
2023-05-25T04:50:14.537Z,95.50
2023-05-25T04:52:42.698Z,95.20
2023-05-25T04:55:13.363Z,95.00
2023-05-25T04:57:43.620Z,94.90
2023-05-25T05:00:15.188Z,94.90
2023-05-25T05:02:44.367Z,94.60
2023-05-25T05:05:12.560Z,94.50
2023-05-25T05:07:41.104Z,94.60
2023-05-25T05:10:10.049Z,94.50
2023-05-25T05:12:41.756Z,94.50
2023-05-25T05:15:10.998Z,94.20
2023-05-25T05:17:40.920Z,94.10
2023-05-25T05:20:10.656Z,94.00
2023-05-25T05:22:39.578Z,93.70
2023-05-25T05:25:09.215Z,93.80
2023-05-25T05:27:37.199Z,93.80
2023-05-25T05:30:15.127Z,93.30
2023-05-25T05:32:45.950Z,93.60
2023-05-25T05:35:15.127Z,93.70
2023-05-25T05:37:46.525Z,93.50
2023-05-25T05:40:14.762Z,93.40
2023-05-25T05:42:43.612Z,93.50
2023-05-25T05:45:12.419Z,92.90
2023-05-25T05:47:41.842Z,92.80
2023-05-25T05:50:10.642Z,92.20
2023-05-25T05:52:40.411Z,92.10
2023-05-25T05:55:09.314Z,92.00
2023-05-25T05:57:39.742Z,92.20
2023-05-25T06:00:09.664Z,92.50
2023-05-25T06:02:45.094Z,92.70
2023-05-25T06:05:20.035Z,92.20
2023-05-25T06:07:49.013Z,92.50
2023-05-25T06:10:19.523Z,92.40
2023-05-25T06:12:48.438Z,92.40
2023-05-25T06:15:17.660Z,92.30
2023-05-25T06:17:49.047Z,92.30
2023-05-25T06:20:18.041Z,92.00
2023-05-25T06:22:47.165Z,91.90
2023-05-25T06:25:15.749Z,92.10
2023-05-25T06:27:43.889Z,91.30
2023-05-25T06:30:13.964Z,90.80
2023-05-25T06:32:43.379Z,91.10
2023-05-25T06:35:19.476Z,91.00
2023-05-25T06:37:50.046Z,90.90
2023-05-25T06:40:20.064Z,90.90
2023-05-25T06:42:48.021Z,91.10
2023-05-25T06:45:36.310Z,90.90
2023-05-25T06:48:04.580Z,90.80
2023-05-25T06:50:33.946Z,90.70
2023-05-25T06:53:01.931Z,90.70
2023-05-25T06:55:29.903Z,90.60
2023-05-25T06:57:57.869Z,90.00
2023-05-25T07:00:26.645Z,89.60
2023-05-25T07:02:54.834Z,90.40
2023-05-25T07:05:22.909Z,90.40
2023-05-25T07:07:52.306Z,90.10
2023-05-25T07:10:20.290Z,88.60
2023-05-25T07:12:48.249Z,88.00
2023-05-25T07:15:16.413Z,89.00
2023-05-25T07:17:45.072Z,89.10
2023-05-25T07:20:14.430Z,87.90
2023-05-25T07:22:43.572Z,87.20
2023-05-25T07:25:12.889Z,87.80
2023-05-25T07:27:42.672Z,87.00
2023-05-25T07:30:11.753Z,86.50
2023-05-25T07:32:39.724Z,87.50
2023-05-25T07:35:08.492Z,87.00
2023-05-25T07:37:36.410Z,86.10
2023-05-25T07:40:04.754Z,84.00
2023-05-25T07:42:35.411Z,84.80
2023-05-25T07:45:03.631Z,84.90
2023-05-25T07:47:31.639Z,82.10
2023-05-25T07:49:59.666Z,82.20
2023-05-25T07:52:27.737Z,82.60
2023-05-25T07:54:55.792Z,83.30
2023-05-25T07:57:23.783Z,81.10
2023-05-25T07:59:53.209Z,81.30
2023-05-25T08:02:21.559Z,82.20
2023-05-25T08:04:49.636Z,81.80
2023-05-25T08:07:19.568Z,82.30
2023-05-25T08:09:47.826Z,81.50
2023-05-25T08:12:34.319Z,82.00
2023-05-25T08:15:07.010Z,80.80
2023-05-25T08:17:35.103Z,80.40
2023-05-25T08:20:05.258Z,80.10
2023-05-25T08:22:33.308Z,79.60
2023-05-25T08:25:01.300Z,77.10
2023-05-25T08:27:29.454Z,77.30
2023-05-25T08:29:57.469Z,78.90
2023-05-25T08:32:26.800Z,79.70
2023-05-25T08:34:54.800Z,79.20
2023-05-25T08:37:23.607Z,76.60
2023-05-25T08:39:51.809Z,75.10
2023-05-25T08:42:19.872Z,76.60
2023-05-25T08:44:47.886Z,74.90
2023-05-25T08:47:19.540Z,74.60
2023-05-25T08:49:50.928Z,72.60
2023-05-25T08:52:23.707Z,72.40
2023-05-25T08:54:54.357Z,72.20
2023-05-25T08:57:30.440Z,75.00
2023-05-25T09:00:08.433Z,75.10
2023-05-25T09:02:40.886Z,74.30
2023-05-25T09:05:10.899Z,74.30
2023-05-25T09:07:39.269Z,69.60
2023-05-25T09:10:09.840Z,70.00
2023-05-25T09:12:39.112Z,71.00
2023-05-25T09:15:08.296Z,72.40
2023-05-25T09:17:38.197Z,74.00
2023-05-25T09:20:07.433Z,74.00
2023-05-25T09:22:37.079Z,73.80
2023-05-25T09:25:09.322Z,71.60
2023-05-25T09:27:38.349Z,66.30
2023-05-25T09:30:07.701Z,64.40
2023-05-25T09:32:36.253Z,67.30
2023-05-25T09:35:11.655Z,69.60
2023-05-25T09:37:42.249Z,69.10
2023-05-25T09:40:11.830Z,70.10
2023-05-25T09:42:40.410Z,70.00
2023-05-25T09:45:08.987Z,66.30
2023-05-25T09:47:38.444Z,64.10
2023-05-25T09:50:07.972Z,63.80
2023-05-25T09:52:37.260Z,65.80
2023-05-25T09:55:10.656Z,66.20
2023-05-25T09:57:39.953Z,68.80
2023-05-25T10:00:11.221Z,67.50
2023-05-25T10:02:43.131Z,67.90
2023-05-25T10:05:11.177Z,68.10
2023-05-25T10:07:41.827Z,70.60
2023-05-25T10:10:15.294Z,69.90
2023-05-25T10:12:44.287Z,68.90
2023-05-25T10:15:14.628Z,68.20
2023-05-25T10:17:46.607Z,64.20
2023-05-25T10:20:16.097Z,62.00
2023-05-25T10:22:48.038Z,62.90
2023-05-25T10:25:24.230Z,65.90
2023-05-25T10:27:59.545Z,67.40
2023-05-25T10:30:28.265Z,67.20
2023-05-25T10:32:56.925Z,62.30
2023-05-25T10:35:25.478Z,61.20
2023-05-25T10:37:54.838Z,66.00
2023-05-25T10:40:25.339Z,65.00
2023-05-25T10:42:54.030Z,65.60
2023-05-25T10:45:23.106Z,66.30
2023-05-25T10:47:51.369Z,63.60
2023-05-25T10:50:24.595Z,65.20
2023-05-25T10:53:01.266Z,65.30
2023-05-25T10:55:42.816Z,64.60
2023-05-25T10:58:13.718Z,64.40
2023-05-25T11:00:42.619Z,65.10
2023-05-25T11:03:11.930Z,65.10
2023-05-25T11:05:41.186Z,58.60
2023-05-25T11:08:12.305Z,63.90
2023-05-25T11:10:53.949Z,61.90
2023-05-25T11:13:37.031Z,62.40
2023-05-25T11:16:17.678Z,63.30
2023-05-25T11:18:47.378Z,63.10
2023-05-25T11:21:18.707Z,62.30
2023-05-25T11:24:00.334Z,62.40
2023-05-25T11:26:30.876Z,57.30
2023-05-25T11:29:00.100Z,58.50
2023-05-25T11:31:35.828Z,57.80
2023-05-25T11:34:07.201Z,57.50
2023-05-25T11:36:37.388Z,57.20
2023-05-25T11:39:11.713Z,57.10
2023-05-25T11:41:50.216Z,59.50
2023-05-25T11:44:28.278Z,59.00
2023-05-25T11:46:58.129Z,60.50
2023-05-25T11:49:26.585Z,60.00
2023-05-25T11:51:54.925Z,60.00
2023-05-25T11:54:27.316Z,62.20
2023-05-25T11:56:59.806Z,62.50
2023-05-25T11:59:30.487Z,56.70
2023-05-25T12:02:01.072Z,59.00
2023-05-25T12:04:29.844Z,62.30
2023-05-25T12:07:04.578Z,61.80
2023-05-25T12:09:33.238Z,60.50
2023-05-25T12:12:05.240Z,60.30
2023-05-25T12:14:36.329Z,61.60
2023-05-25T12:17:04.605Z,62.70
2023-05-25T12:19:33.341Z,61.60
2023-05-25T12:22:01.553Z,60.20
2023-05-25T12:24:29.743Z,61.60
2023-05-25T12:26:59.116Z,60.80
2023-05-25T12:29:28.855Z,60.50
2023-05-25T12:32:04.383Z,61.40
2023-05-25T12:34:32.815Z,56.30
2023-05-25T12:37:01.535Z,57.60
2023-05-25T12:39:39.116Z,60.90
2023-05-25T12:42:15.183Z,58.90
2023-05-25T12:44:46.573Z,58.10
2023-05-25T12:47:16.307Z,55.30
2023-05-25T12:49:45.445Z,55.80
2023-05-25T12:52:32.991Z,56.60
2023-05-25T12:55:16.526Z,54.20
2023-05-25T12:57:44.526Z,54.70
2023-05-25T13:00:15.017Z,55.20
2023-05-25T13:02:46.539Z,59.00
2023-05-25T13:05:20.672Z,58.90
2023-05-25T13:07:49.023Z,58.80
2023-05-25T13:10:18.391Z,58.30
2023-05-25T13:12:46.779Z,56.50
2023-05-25T13:15:18.505Z,54.90
2023-05-25T13:17:46.567Z,54.20
2023-05-25T13:20:15.694Z,56.30
2023-05-25T13:22:45.585Z,53.70
2023-05-25T13:25:14.557Z,53.80
2023-05-25T13:27:45.710Z,55.60
2023-05-25T13:30:14.198Z,53.70
2023-05-25T13:32:44.427Z,55.30
2023-05-25T13:35:19.055Z,55.20
2023-05-25T13:37:47.149Z,56.30
2023-05-25T13:40:15.295Z,54.40
2023-05-25T13:42:43.374Z,54.80
2023-05-25T13:45:12.016Z,55.20
2023-05-25T13:47:40.106Z,55.80
2023-05-25T13:50:10.498Z,54.20
2023-05-25T13:52:38.498Z,52.70
2023-05-25T13:55:07.526Z,53.70
2023-05-25T13:57:35.464Z,51.00
2023-05-25T14:00:03.642Z,51.40
2023-05-25T14:02:35.223Z,47.70
2023-05-25T14:05:03.571Z,47.40
2023-05-25T14:07:33.140Z,47.20
2023-05-25T14:10:01.252Z,44.50
2023-05-25T14:12:29.267Z,42.10
2023-05-25T14:14:57.304Z,40.40
2023-05-25T14:17:25.580Z,39.40
2023-05-25T14:19:53.945Z,40.10
2023-05-25T14:22:22.048Z,41.00
2023-05-25T14:24:51.374Z,40.70
2023-05-25T14:27:21.174Z,40.20
2023-05-25T14:29:49.714Z,40.30
2023-05-25T14:32:18.059Z,39.70
2023-05-25T14:34:46.143Z,38.60
2023-05-25T14:37:14.170Z,40.60
2023-05-25T14:39:42.233Z,41.30
2023-05-25T14:42:12.029Z,39.90
2023-05-25T14:44:40.043Z,40.80
2023-05-25T14:47:09.263Z,41.40
2023-05-25T14:49:37.435Z,42.00
2023-05-25T14:52:05.714Z,41.00
2023-05-25T14:54:33.724Z,42.20
2023-05-25T14:57:01.954Z,41.70
2023-05-25T14:59:31.305Z,42.90
2023-05-25T15:01:59.444Z,41.70
2023-05-25T15:04:30.009Z,41.50
2023-05-25T15:06:58.064Z,41.80
2023-05-25T15:09:26.110Z,41.50
2023-05-25T15:11:54.236Z,41.60
2023-05-25T15:14:22.395Z,42.00
2023-05-25T15:16:51.784Z,41.20
2023-05-25T15:19:19.875Z,41.80
2023-05-25T15:21:47.889Z,42.10
2023-05-25T15:24:16.786Z,41.10
2023-05-25T15:26:44.876Z,42.40
2023-05-25T15:29:12.955Z,43.70
2023-05-25T15:31:41.416Z,42.20
2023-05-25T15:34:11.209Z,42.30
2023-05-25T15:36:39.317Z,41.40
2023-05-25T15:39:09.037Z,41.60
2023-05-25T15:41:37.856Z,40.50
2023-05-25T15:44:08.244Z,40.00
2023-05-25T15:46:36.485Z,38.60
2023-05-25T15:49:10.753Z,39.20
2023-05-25T15:51:42.783Z,40.40
2023-05-25T15:54:14.361Z,42.20
2023-05-25T15:56:42.971Z,40.30
2023-05-25T15:59:12.459Z,40.70
2023-05-25T16:01:41.124Z,40.00
2023-05-25T16:04:09.272Z,40.30
2023-05-25T16:06:38.256Z,42.00
2023-05-25T16:09:08.212Z,40.30
2023-05-25T16:11:36.476Z,41.20
2023-05-25T16:14:04.601Z,42.00
2023-05-25T16:16:32.898Z,41.30
2023-05-25T16:19:01.403Z,41.70
2023-05-25T16:21:29.470Z,41.50
2023-05-25T16:23:57.453Z,41.90
2023-05-25T16:26:27.150Z,42.70
2023-05-25T16:28:55.455Z,43.20
2023-05-25T16:31:24.213Z,42.50
2023-05-25T16:33:52.219Z,41.70
2023-05-25T16:36:20.261Z,42.30
2023-05-25T16:38:48.344Z,42.90
2023-05-25T16:41:17.045Z,43.70
2023-05-25T16:43:47.359Z,44.10
2023-05-25T16:46:15.397Z,43.10
2023-05-25T16:48:43.396Z,43.70
2023-05-25T16:51:14.994Z,43.30
2023-05-25T16:53:45.231Z,44.30
2023-05-25T16:56:13.172Z,44.30
2023-05-25T16:58:41.100Z,44.80
2023-05-25T17:01:11.422Z,44.40
2023-05-25T17:03:39.626Z,43.20
2023-05-25T17:06:08.392Z,44.10
2023-05-25T17:08:36.439Z,46.00
2023-05-25T17:11:04.932Z,44.90
2023-05-25T17:13:32.934Z,45.30
2023-05-25T17:16:01.007Z,46.10
2023-05-25T17:18:30.435Z,46.60
2023-05-25T17:20:58.867Z,47.00
2023-05-25T17:23:26.806Z,47.00
2023-05-25T17:25:54.824Z,47.00
2023-05-25T17:28:22.788Z,46.40
2023-05-25T17:30:50.946Z,46.90
2023-05-25T17:33:19.054Z,46.70
2023-05-25T17:35:48.458Z,46.60
2023-05-25T17:38:16.465Z,46.20
2023-05-25T17:40:44.572Z,47.00
2023-05-25T17:43:12.588Z,46.30
2023-05-25T17:45:40.587Z,46.40
2023-05-25T17:48:08.671Z,46.20
2023-05-25T17:50:36.713Z,46.00
2023-05-25T17:53:06.084Z,45.80
2023-05-25T17:55:34.098Z,45.80
2023-05-25T17:58:02.329Z,45.50
2023-05-25T18:00:31.109Z,46.20
2023-05-25T18:02:59.269Z,46.60
2023-05-25T18:05:27.390Z,47.30
2023-05-25T18:07:55.380Z,47.30
2023-05-25T18:10:24.820Z,48.10
2023-05-25T18:12:54.188Z,48.40
2023-05-25T18:15:22.735Z,48.00
2023-05-25T18:17:50.730Z,48.90
2023-05-25T18:20:18.959Z,48.10
2023-05-25T18:22:47.030Z,49.20
2023-05-25T18:25:15.997Z,48.60
2023-05-25T18:27:47.163Z,49.70
2023-05-25T18:30:16.034Z,51.40
2023-05-25T18:32:45.231Z,52.00
2023-05-25T18:35:13.242Z,52.50
2023-05-25T18:37:41.396Z,53.40
2023-05-25T18:40:11.693Z,53.20
2023-05-25T18:42:39.823Z,53.80
2023-05-25T18:45:10.190Z,53.40
2023-05-25T18:47:38.806Z,52.90
2023-05-25T18:50:08.195Z,52.80
2023-05-25T18:52:36.231Z,52.50
2023-05-25T18:55:04.232Z,52.30
2023-05-25T18:57:32.953Z,51.80
2023-05-25T19:00:01.012Z,51.40
2023-05-25T19:02:30.458Z,51.60
2023-05-25T19:04:58.520Z,51.50
2023-05-25T19:07:26.530Z,51.80
2023-05-25T19:09:54.524Z,52.00
2023-05-25T19:12:22.578Z,52.50
2023-05-25T19:14:50.528Z,52.80
2023-05-25T19:17:18.508Z,53.20
2023-05-25T19:19:47.830Z,53.50
2023-05-25T19:22:15.893Z,53.40
2023-05-25T19:24:48.211Z,53.70
2023-05-25T19:27:16.683Z,54.20
2023-05-25T19:29:45.530Z,54.60
2023-05-25T19:32:14.984Z,55.70
2023-05-25T19:34:43.784Z,55.40
2023-05-25T19:37:13.256Z,56.20
2023-05-25T19:39:41.249Z,56.80
2023-05-25T19:42:09.426Z,57.20
2023-05-25T19:44:40.481Z,57.70
2023-05-25T19:47:08.639Z,58.20
2023-05-25T19:49:36.738Z,58.50
2023-05-25T19:52:04.779Z,58.60
2023-05-25T19:54:34.118Z,58.50
2023-05-25T19:57:03.113Z,58.70
2023-05-25T19:59:31.626Z,58.60
2023-05-25T20:01:59.787Z,59.10
2023-05-25T20:04:27.766Z,59.70
2023-05-25T20:06:56.077Z,59.90
2023-05-25T20:09:30.633Z,60.00
2023-05-25T20:12:02.445Z,60.00
2023-05-25T20:14:33.613Z,60.30
2023-05-25T20:17:01.660Z,60.60
2023-05-25T20:19:29.747Z,60.90
2023-05-25T20:21:58.005Z,61.10
2023-05-25T20:24:26.044Z,61.10
2023-05-25T20:26:56.775Z,61.20
2023-05-25T20:29:26.508Z,61.50
2023-05-25T20:31:54.699Z,61.90
2023-05-25T20:34:22.738Z,61.90
2023-05-25T20:36:51.169Z,62.30
2023-05-25T20:39:19.430Z,62.00
2023-05-25T20:41:47.408Z,62.00
2023-05-25T20:44:16.170Z,62.30
2023-05-25T20:46:45.616Z,62.90
2023-05-25T20:49:13.692Z,62.90
2023-05-25T20:51:44.390Z,63.30
2023-05-25T20:54:12.397Z,63.80
2023-05-25T20:56:40.494Z,64.00
2023-05-25T20:59:08.558Z,64.40
2023-05-25T21:01:36.656Z,64.40
2023-05-25T21:04:06.749Z,64.50
2023-05-25T21:06:36.859Z,64.50
2023-05-25T21:09:06.085Z,65.00
2023-05-25T21:11:34.149Z,65.10
2023-05-25T21:14:02.195Z,65.30
2023-05-25T21:16:30.303Z,65.50
2023-05-25T21:18:58.306Z,65.40
2023-05-25T21:21:28.082Z,65.50
2023-05-25T21:23:56.106Z,65.90
2023-05-25T21:26:24.093Z,66.30
2023-05-25T21:28:52.081Z,66.70
2023-05-25T21:31:20.729Z,66.50
2023-05-25T21:33:48.778Z,66.90
2023-05-25T21:36:16.981Z,66.80
2023-05-25T21:38:46.338Z,66.60
2023-05-25T21:41:14.431Z,66.60
2023-05-25T21:43:42.504Z,66.90
2023-05-25T21:46:10.617Z,67.10
2023-05-25T21:48:38.653Z,67.20
2023-05-25T21:51:06.787Z,67.30
2023-05-25T21:53:34.881Z,67.50
2023-05-25T21:56:04.327Z,68.00
2023-05-25T21:58:32.319Z,68.20
2023-05-25T22:01:00.409Z,68.50
2023-05-25T22:03:28.621Z,69.20
2023-05-25T22:05:56.646Z,68.80
2023-05-25T22:08:24.753Z,69.00
2023-05-25T22:10:52.790Z,68.80
2023-05-25T22:13:22.241Z,68.10
2023-05-25T22:15:50.296Z,68.10
2023-05-25T22:18:18.286Z,67.60
2023-05-25T22:20:46.424Z,67.90
2023-05-25T22:23:15.337Z,67.70
2023-05-25T22:25:43.509Z,67.90
2023-05-25T22:28:11.572Z,67.70
2023-05-25T22:30:42.424Z,67.60
2023-05-25T22:33:10.595Z,68.40
2023-05-25T22:35:39.280Z,69.00
2023-05-25T22:38:07.368Z,69.10
2023-05-25T22:40:35.397Z,69.20
2023-05-25T22:43:03.571Z,69.40
2023-05-25T22:45:31.538Z,69.40
2023-05-25T22:48:01.177Z,68.60
2023-05-25T22:50:29.219Z,68.30
2023-05-25T22:52:58.294Z,67.90
2023-05-25T22:55:26.369Z,68.00
2023-05-25T22:57:54.569Z,67.90
2023-05-25T23:00:22.758Z,68.20
2023-05-25T23:02:50.821Z,68.30
2023-05-25T23:05:20.568Z,68.70
2023-05-25T23:07:48.609Z,69.00
2023-05-25T23:10:17.351Z,69.20
2023-05-25T23:12:46.612Z,69.10
2023-05-25T23:15:14.604Z,69.10
2023-05-25T23:17:42.688Z,69.50
2023-05-25T23:20:11.825Z,69.50
2023-05-25T23:22:41.852Z,69.50
2023-05-25T23:25:10.546Z,69.50
2023-05-25T23:27:38.614Z,69.40
2023-05-25T23:30:08.145Z,69.10
2023-05-25T23:32:36.813Z,68.60
2023-05-25T23:35:05.458Z,69.10
2023-05-25T23:37:33.561Z,69.10
2023-05-25T23:40:03.026Z,69.90
2023-05-25T23:42:38.023Z,70.90
2023-05-25T23:45:08.158Z,71.30
2023-05-25T23:47:36.260Z,71.10
2023-05-25T23:50:04.529Z,71.10
2023-05-25T23:52:32.500Z,71.10
2023-05-25T23:55:01.764Z,71.30
2023-05-25T23:57:29.975Z,71.50
2023-05-25T23:59:58.049Z,72.20
